SPHI/CIX METAR and TAF weather

Enter ICAO airport designator
Station Type Date Time Source
SPHI METAR 2019/10/22 17:00 UTC NOAA

SPHI 221700Z 19013KT 160V220 CAVOK 23/15 Q1016 RMK BIRD HAZARD RWY 19/01 PP000


Station Type Date Time Source
SPHI Decoded METAR 2019/10/22 17:00 UTC NOAA

Chiclayo, Peru (SPHI) 06-47S 079-50W 34M
Oct 22, 2019 - 01:00 PM EDT / 2019.10.22 1700 UTC
Wind: from the S (190 degrees) at 15 MPH (13 KT) (direction variable):0
Visibility: greater than 7 mile(s):0
Temperature: 73 F (23 C)
Dew Point: 59 F (15 C)
Relative Humidity: 60%
Pressure (altimeter): 30.00 in. Hg (1016 hPa)
ob: SPHI 221700Z 19013KT 160V220 CAVOK 23/15 Q1016 RMK BIRD HAZARD RWY 19/01 PP000
cycle: 17

Station Type Date Time Source
SPHI TAF 2019/10/22 12:33 UTC NOAA

TAF SPHI 221100Z 2212/2312 18010KT CAVOK TX25/2219Z TN16/2311Z
TEMPO 2212/2214 BKN014
BECMG 2218/2220 18020KT
BECMG 2303/2305 17010KT

Example: see airport list